Port McNeill, Canada
Current Conditions -  °F | °C
As of 12:00 AM on Saturday 29 Nov 2014 (Local Time) from CYZT Reporting Station
Broken Clouds Broken Clouds  
Wind Chill: 19°   Ceiling: 5600
Heat Index: 30°   Visibility: 15mi
Dew Point: 14°   Wind: 15mph
Humidity: 51%   Direction: 20°NNE
Pressure: 29.68"   Gusts: NA
Location:  50.58°N, 127.08°W
Report Text: CYZT 290800Z 02013KT 15SM SCT034 BKN056 M01/M10 A2968 RMK SC3SC3 SLP051
Loading
Personal Weather Stations






























Interactive Weather Map New forecast layout! Learn more

10-Day Weather Forecast

Advertisements
Track Severe Weather on mobile